createdAt,value
2024-03-05T00:03:58.711Z,18.50
2024-03-05T00:09:01.659Z,18.70
2024-03-05T00:14:05.346Z,19.30
2024-03-05T00:19:09.679Z,18.57
2024-03-05T00:24:12.508Z,19.97
2024-03-05T00:29:17.126Z,18.27
2024-03-05T00:34:19.976Z,18.73
2024-03-05T00:39:22.876Z,19.10
2024-03-05T00:44:25.843Z,17.90
2024-03-05T00:49:30.423Z,18.93
2024-03-05T00:54:33.474Z,18.63
2024-03-05T00:59:36.662Z,18.90
2024-03-05T01:04:39.868Z,17.40
2024-03-05T01:09:42.802Z,17.50
2024-03-05T01:14:46.101Z,17.33
2024-03-05T01:19:49.323Z,17.33
2024-03-05T01:24:52.393Z,17.53
2024-03-05T01:29:55.425Z,18.40
2024-03-05T01:34:58.319Z,16.93
2024-03-05T01:40:01.361Z,16.83
2024-03-05T01:45:05.069Z,17.50
2024-03-05T01:50:10.631Z,18.13
2024-03-05T01:55:16.407Z,17.40
2024-03-05T02:00:21.973Z,17.87
2024-03-05T02:05:25.482Z,17.20
2024-03-05T02:10:28.714Z,17.03
2024-03-05T02:15:31.710Z,16.10
2024-03-05T02:20:35.124Z,15.67
2024-03-05T02:25:38.064Z,16.93
2024-03-05T02:30:41.510Z,17.23
2024-03-05T02:35:47.566Z,16.73
2024-03-05T02:40:50.383Z,15.47
2024-03-05T02:45:53.240Z,14.97
2024-03-05T02:50:56.441Z,15.00
2024-03-05T02:55:59.279Z,14.70
2024-03-05T03:01:03.314Z,13.53
2024-03-05T03:06:06.407Z,14.93
2024-03-05T03:11:09.910Z,16.37
2024-03-05T03:16:13.755Z,17.13
2024-03-05T03:21:17.155Z,18.27
2024-03-05T03:26:19.947Z,16.27
2024-03-05T03:31:26.910Z,14.17
2024-03-05T03:36:29.803Z,15.90
2024-03-05T03:41:32.688Z,15.93
2024-03-05T03:46:36.183Z,16.97
2024-03-05T03:51:39.831Z,15.70
2024-03-05T03:56:42.640Z,15.80
2024-03-05T04:01:50.956Z,15.13
2024-03-05T04:06:53.983Z,16.87
2024-03-05T04:11:56.992Z,16.63
2024-03-05T04:16:59.872Z,15.43
2024-03-05T04:22:03.485Z,15.33
2024-03-05T04:27:08.650Z,15.03
2024-03-05T04:32:11.646Z,14.57
2024-03-05T04:37:15.093Z,14.00
2024-03-05T04:42:18.039Z,15.20
2024-03-05T04:47:21.794Z,12.97
2024-03-05T04:52:24.743Z,12.13
2024-03-05T04:57:27.612Z,9.73
2024-03-05T05:02:30.436Z,9.37
2024-03-05T05:07:34.770Z,9.63
2024-03-05T05:12:40.660Z,8.67
2024-03-05T05:17:45.957Z,8.87
2024-03-05T05:22:49.126Z,8.30
2024-03-05T05:27:52.827Z,8.60
2024-03-05T05:32:56.248Z,9.17
2024-03-05T05:38:00.110Z,9.30
2024-03-05T05:43:03.027Z,9.57
2024-03-05T05:48:06.581Z,8.97
2024-03-05T05:53:10.015Z,7.87
2024-03-05T05:58:14.489Z,8.80
2024-03-05T06:03:18.177Z,9.43
2024-03-05T06:08:21.907Z,8.40
2024-03-05T06:13:25.683Z,7.90
2024-03-05T06:18:30.459Z,9.37
2024-03-05T06:23:33.443Z,8.40
2024-03-05T06:28:39.094Z,7.60
2024-03-05T06:33:42.170Z,6.77
2024-03-05T06:38:45.242Z,7.40
2024-03-05T06:43:49.092Z,7.43
2024-03-05T06:48:53.607Z,6.20
2024-03-05T06:54:15.027Z,6.33
2024-03-05T06:59:19.581Z,6.10
2024-03-05T07:04:22.528Z,5.90
2024-03-05T07:09:31.958Z,5.57
2024-03-05T07:14:34.979Z,5.60
2024-03-05T07:19:38.659Z,5.90
2024-03-05T07:24:42.069Z,6.30
2024-03-05T07:29:44.896Z,5.53
2024-03-05T07:34:47.840Z,5.33
2024-03-05T07:39:50.693Z,6.17
2024-03-05T07:44:53.513Z,5.27
2024-03-05T07:49:56.793Z,4.43
2024-03-05T07:54:59.980Z,4.80
2024-03-05T08:00:09.847Z,5.80
2024-03-05T08:05:22.918Z,5.10
2024-03-05T08:10:26.623Z,5.40
2024-03-05T08:15:29.913Z,5.50
2024-03-05T08:20:32.838Z,5.10
2024-03-05T08:25:36.137Z,5.90
2024-03-05T08:30:38.989Z,7.40
2024-03-05T08:35:41.872Z,6.17
2024-03-05T08:40:44.807Z,7.27
2024-03-05T08:45:47.944Z,5.87
2024-03-05T08:50:51.338Z,5.03
2024-03-05T08:55:54.121Z,4.43
2024-03-05T09:00:57.148Z,4.13
2024-03-05T09:05:59.974Z,4.40
2024-03-05T09:11:06.713Z,4.73
2024-03-05T09:16:10.839Z,5.80
2024-03-05T09:21:14.293Z,5.47
2024-03-05T09:26:17.470Z,5.60
2024-03-05T09:31:20.559Z,5.17
2024-03-05T09:36:24.629Z,5.40
2024-03-05T09:41:29.120Z,4.30
2024-03-05T09:46:33.047Z,4.97
2024-03-05T09:51:37.777Z,4.57
2024-03-05T09:56:46.835Z,5.20
2024-03-05T10:01:51.225Z,5.43
2024-03-05T10:06:54.681Z,5.00
2024-03-05T10:11:58.144Z,4.30
2024-03-05T10:17:02.484Z,4.27
2024-03-05T10:22:12.088Z,3.80
2024-03-05T10:27:28.907Z,4.20
2024-03-05T10:32:31.847Z,3.90
2024-03-05T10:37:34.845Z,3.80
2024-03-05T10:42:39.711Z,3.80
2024-03-05T10:47:44.170Z,4.03
2024-03-05T10:52:55.547Z,3.80
2024-03-05T10:58:15.200Z,3.70
2024-03-05T11:03:41.001Z,3.20
2024-03-05T11:08:46.234Z,2.97
2024-03-05T11:13:51.508Z,2.67
2024-03-05T11:18:54.645Z,3.20
2024-03-05T11:23:59.352Z,3.00
2024-03-05T11:29:31.619Z,2.27
2024-03-05T11:34:36.760Z,1.87
2024-03-05T11:39:47.660Z,2.20
2024-03-05T11:44:51.386Z,1.13
2024-03-05T11:49:54.621Z,1.33
2024-03-05T11:55:07.286Z,1.70
2024-03-05T12:00:23.280Z,2.20
2024-03-05T12:05:31.089Z,2.63
2024-03-05T12:10:40.365Z,1.63
2024-03-05T12:15:43.324Z,1.93
2024-03-05T12:20:47.484Z,1.60
2024-03-05T12:25:50.486Z,1.20
2024-03-05T12:30:54.853Z,1.60
2024-03-05T12:35:59.761Z,1.60
2024-03-05T12:41:02.903Z,1.60
2024-03-05T12:46:05.844Z,1.33
2024-03-05T12:51:10.630Z,1.30
2024-03-05T12:56:17.095Z,1.00
2024-03-05T13:01:20.609Z,1.90
2024-03-05T13:06:23.590Z,1.20
2024-03-05T13:11:26.986Z,1.10
2024-03-05T13:16:30.735Z,1.10
2024-03-05T13:21:35.151Z,0.77
2024-03-05T13:26:49.078Z,0.93
2024-03-05T13:31:52.238Z,1.03
2024-03-05T13:36:55.339Z,1.53
2024-03-05T13:41:58.403Z,1.20
2024-03-05T13:47:01.620Z,1.00
2024-03-05T13:52:04.841Z,1.00
2024-03-05T13:57:08.870Z,1.33
2024-03-05T14:02:12.018Z,0.80
2024-03-05T14:07:16.580Z,1.17
2024-03-05T14:12:19.504Z,0.97
2024-03-05T14:17:22.938Z,1.23
2024-03-05T14:22:25.760Z,0.97
2024-03-05T14:27:28.730Z,1.03
2024-03-05T14:32:32.020Z,2.10
2024-03-05T14:37:35.007Z,1.13
2024-03-05T14:42:40.631Z,1.23
2024-03-05T14:47:45.277Z,1.13
2024-03-05T14:52:48.241Z,1.10
2024-03-05T14:57:51.544Z,1.00
2024-03-05T15:02:55.233Z,0.90
2024-03-05T15:07:58.645Z,1.00
2024-03-05T15:13:01.817Z,1.10
2024-03-05T15:18:06.634Z,1.00
2024-03-05T15:23:11.480Z,1.10
2024-03-05T15:28:14.545Z,0.90
2024-03-05T15:33:17.953Z,0.97
2024-03-05T15:38:21.862Z,1.03
2024-03-05T15:43:25.016Z,1.43
2024-03-05T15:48:28.003Z,1.03
2024-03-05T15:53:31.320Z,1.20
2024-03-05T15:58:43.653Z,1.20
2024-03-05T16:08:54.442Z,0.90
2024-03-05T16:13:57.349Z,1.33
2024-03-05T16:19:00.229Z,1.10
2024-03-05T16:24:03.722Z,1.40
2024-03-05T16:29:07.922Z,1.70
2024-03-05T16:34:13.401Z,1.43
2024-03-05T16:39:19.826Z,1.10
2024-03-05T16:44:23.800Z,1.30
2024-03-05T16:49:27.295Z,1.40
2024-03-05T16:54:30.128Z,1.20
2024-03-05T16:59:33.196Z,1.43
2024-03-05T17:04:36.226Z,1.17
2024-03-05T17:09:39.057Z,1.43
2024-03-05T17:14:44.166Z,1.30
2024-03-05T17:19:47.959Z,1.73
2024-03-05T17:24:52.073Z,1.60
2024-03-05T17:29:54.945Z,2.03
2024-03-05T17:35:00.848Z,1.50
2024-03-05T17:40:10.137Z,1.33
2024-03-05T17:45:15.401Z,1.80
2024-03-05T17:50:18.359Z,1.60
2024-03-05T17:55:22.057Z,2.33
2024-03-05T18:00:28.300Z,1.63
2024-03-05T18:05:31.801Z,1.63
2024-03-05T18:10:37.127Z,1.90
2024-03-05T18:15:40.377Z,1.90
2024-03-05T18:20:45.018Z,2.30
2024-03-05T18:25:49.426Z,2.03
2024-03-05T18:30:52.694Z,2.17
2024-03-05T18:35:57.602Z,2.00
2024-03-05T18:41:02.212Z,2.00
2024-03-05T18:46:07.080Z,1.83
2024-03-05T18:51:10.946Z,2.03
2024-03-05T18:56:14.384Z,2.03
2024-03-05T19:01:17.664Z,1.80
2024-03-05T19:06:24.123Z,1.97
2024-03-05T19:11:28.166Z,1.80
2024-03-05T19:16:31.486Z,1.97
2024-03-05T19:21:34.386Z,1.40
2024-03-05T19:26:37.185Z,1.63
2024-03-05T19:31:45.954Z,1.80
2024-03-05T19:36:48.817Z,1.63
2024-03-05T19:41:52.327Z,1.70
2024-03-05T19:46:55.225Z,2.00
2024-03-05T19:51:59.624Z,1.90
2024-03-05T19:57:04.356Z,2.23
2024-03-05T20:02:07.661Z,2.50
2024-03-05T20:07:13.349Z,2.23
2024-03-05T20:12:16.485Z,2.47
2024-03-05T20:17:23.220Z,2.40
2024-03-05T20:22:29.299Z,1.87
2024-03-05T20:27:32.481Z,2.90
2024-03-05T20:32:35.300Z,2.30
2024-03-05T20:37:38.108Z,2.60
2024-03-05T20:42:45.000Z,2.77
2024-03-05T20:47:49.346Z,2.97
2024-03-05T20:52:52.367Z,2.60
2024-03-05T20:57:55.421Z,2.73
2024-03-05T21:02:58.666Z,2.50
2024-03-05T21:08:01.558Z,3.13
2024-03-05T21:13:05.015Z,3.03
2024-03-05T21:18:10.940Z,2.67
2024-03-05T21:23:16.741Z,3.43
2024-03-05T21:28:21.079Z,3.93
2024-03-05T21:33:25.330Z,3.90
2024-03-05T21:38:28.900Z,3.40
2024-03-05T21:43:31.703Z,3.83
2024-03-05T21:48:35.060Z,3.10
2024-03-05T21:53:37.927Z,3.80
2024-03-05T21:58:43.388Z,3.50
2024-03-05T22:03:46.386Z,2.97
2024-03-05T22:08:50.056Z,2.57
2024-03-05T22:13:52.986Z,3.20
2024-03-05T22:18:55.946Z,3.27
2024-03-05T22:23:59.914Z,4.07
2024-03-05T22:29:04.155Z,3.00
2024-03-05T22:34:06.976Z,3.20
2024-03-05T22:39:09.869Z,2.30
2024-03-05T22:44:12.843Z,2.20
2024-03-05T22:49:15.881Z,2.00
2024-03-05T22:54:18.752Z,2.00
2024-03-05T22:59:21.641Z,2.10
2024-03-05T23:04:24.476Z,2.50
2024-03-05T23:09:27.385Z,1.93
2024-03-05T23:14:31.908Z,2.27
2024-03-05T23:19:34.743Z,2.30
2024-03-05T23:24:37.629Z,2.30
2024-03-05T23:29:41.511Z,2.37
2024-03-05T23:34:44.417Z,2.70
2024-03-05T23:39:47.209Z,2.97
2024-03-05T23:44:50.132Z,3.37
2024-03-05T23:49:53.924Z,2.87
2024-03-05T23:55:00.206Z,3.47
